sensor_id;sensor_type;location;lat;lon;timestamp;P1;durP1;ratioP1;P2;durP2;ratioP2
37781;SDS011;23621;50.878;4.584;2023-02-01T00:01:14;11.48;;;6.05;;
37781;SDS011;23621;50.878;4.584;2023-02-01T00:03:41;13.05;;;5.82;;
37781;SDS011;23621;50.878;4.584;2023-02-01T00:06:08;10.85;;;5.68;;
37781;SDS011;23621;50.878;4.584;2023-02-01T00:08:35;10.07;;;6.00;;
37781;SDS011;23621;50.878;4.584;2023-02-01T00:11:06;13.73;;;5.32;;
37781;SDS011;23621;50.878;4.584;2023-02-01T00:13:35;10.63;;;5.78;;
37781;SDS011;23621;50.878;4.584;2023-02-01T00:18:36;10.65;;;5.00;;
37781;SDS011;23621;50.878;4.584;2023-02-01T00:21:03;11.13;;;5.03;;
37781;SDS011;23621;50.878;4.584;2023-02-01T00:23:34;10.27;;;5.60;;
37781;SDS011;23621;50.878;4.584;2023-02-01T00:26:02;11.30;;;6.13;;
37781;SDS011;23621;50.878;4.584;2023-02-01T00:28:30;10.18;;;5.05;;
37781;SDS011;23621;50.878;4.584;2023-02-01T00:30:58;16.00;;;5.10;;
37781;SDS011;23621;50.878;4.584;2023-02-01T00:33:27;20.35;;;5.43;;
37781;SDS011;23621;50.878;4.584;2023-02-01T00:35:58;11.52;;;4.68;;
37781;SDS011;23621;50.878;4.584;2023-02-01T00:38:30;8.48;;;4.93;;
37781;SDS011;23621;50.878;4.584;2023-02-01T00:41:04;13.70;;;5.93;;
37781;SDS011;23621;50.878;4.584;2023-02-01T00:43:37;12.95;;;5.45;;
37781;SDS011;23621;50.878;4.584;2023-02-01T00:46:05;12.85;;;5.28;;
37781;SDS011;23621;50.878;4.584;2023-02-01T00:48:32;11.40;;;5.90;;
37781;SDS011;23621;50.878;4.584;2023-02-01T00:51:00;12.50;;;5.28;;
37781;SDS011;23621;50.878;4.584;2023-02-01T00:53:31;9.40;;;5.22;;
37781;SDS011;23621;50.878;4.584;2023-02-01T00:55:58;12.35;;;5.47;;
37781;SDS011;23621;50.878;4.584;2023-02-01T00:58:25;15.88;;;5.38;;
37781;SDS011;23621;50.878;4.584;2023-02-01T01:03:39;8.80;;;4.75;;
37781;SDS011;23621;50.878;4.584;2023-02-01T01:06:10;13.63;;;5.50;;
37781;SDS011;23621;50.878;4.584;2023-02-01T01:08:39;8.30;;;4.60;;
37781;SDS011;23621;50.878;4.584;2023-02-01T01:11:11;9.20;;;5.28;;
37781;SDS011;23621;50.878;4.584;2023-02-01T01:13:45;12.07;;;4.38;;
37781;SDS011;23621;50.878;4.584;2023-02-01T01:16:13;11.85;;;4.60;;
37781;SDS011;23621;50.878;4.584;2023-02-01T01:18:40;11.48;;;5.07;;
37781;SDS011;23621;50.878;4.584;2023-02-01T01:21:08;14.13;;;5.63;;
37781;SDS011;23621;50.878;4.584;2023-02-01T01:23:35;7.72;;;4.53;;
37781;SDS011;23621;50.878;4.584;2023-02-01T01:26:09;11.98;;;4.25;;
37781;SDS011;23621;50.878;4.584;2023-02-01T01:28:40;12.95;;;4.22;;
37781;SDS011;23621;50.878;4.584;2023-02-01T01:31:10;14.43;;;4.55;;
37781;SDS011;23621;50.878;4.584;2023-02-01T01:33:38;10.55;;;4.95;;
37781;SDS011;23621;50.878;4.584;2023-02-01T01:36:05;11.50;;;4.45;;
37781;SDS011;23621;50.878;4.584;2023-02-01T01:38:34;11.45;;;4.55;;
37781;SDS011;23621;50.878;4.584;2023-02-01T01:41:01;11.52;;;4.80;;
37781;SDS011;23621;50.878;4.584;2023-02-01T01:43:45;11.43;;;5.40;;
37781;SDS011;23621;50.878;4.584;2023-02-01T01:46:29;15.05;;;4.75;;
37781;SDS011;23621;50.878;4.584;2023-02-01T01:49:09;12.75;;;4.88;;
37781;SDS011;23621;50.878;4.584;2023-02-01T01:51:44;12.02;;;4.78;;
37781;SDS011;23621;50.878;4.584;2023-02-01T01:56:58;9.93;;;4.72;;
37781;SDS011;23621;50.878;4.584;2023-02-01T01:59:30;14.55;;;4.88;;
37781;SDS011;23621;50.878;4.584;2023-02-01T02:01:58;10.27;;;4.55;;
37781;SDS011;23621;50.878;4.584;2023-02-01T02:04:25;11.70;;;4.30;;
37781;SDS011;23621;50.878;4.584;2023-02-01T02:07:05;11.65;;;4.72;;
37781;SDS011;23621;50.878;4.584;2023-02-01T02:09:38;9.32;;;4.95;;
37781;SDS011;23621;50.878;4.584;2023-02-01T02:12:13;12.98;;;4.88;;
37781;SDS011;23621;50.878;4.584;2023-02-01T02:14:40;11.63;;;4.85;;
37781;SDS011;23621;50.878;4.584;2023-02-01T02:28:00;13.75;;;4.05;;
37781;SDS011;23621;50.878;4.584;2023-02-01T02:42:25;7.82;;;3.22;;
37781;SDS011;23621;50.878;4.584;2023-02-01T02:44:45;11.18;;;3.72;;
37781;SDS011;23621;50.878;4.584;2023-02-01T02:47:48;13.82;;;4.90;;
37781;SDS011;23621;50.878;4.584;2023-02-01T02:53:27;10.48;;;3.20;;
37781;SDS011;23621;50.878;4.584;2023-02-01T02:56:13;10.63;;;4.05;;
37781;SDS011;23621;50.878;4.584;2023-02-01T02:59:01;11.40;;;3.65;;
37781;SDS011;23621;50.878;4.584;2023-02-01T03:01:50;8.57;;;2.90;;
37781;SDS011;23621;50.878;4.584;2023-02-01T03:04:36;7.85;;;3.28;;
37781;SDS011;23621;50.878;4.584;2023-02-01T03:07:53;10.60;;;3.85;;
37781;SDS011;23621;50.878;4.584;2023-02-01T03:12:50;12.05;;;3.10;;
37781;SDS011;23621;50.878;4.584;2023-02-01T03:15:34;10.02;;;4.05;;
37781;SDS011;23621;50.878;4.584;2023-02-01T03:18:07;10.52;;;4.05;;
37781;SDS011;23621;50.878;4.584;2023-02-01T03:20:44;11.90;;;3.45;;
37781;SDS011;23621;50.878;4.584;2023-02-01T03:23:16;11.52;;;4.22;;
37781;SDS011;23621;50.878;4.584;2023-02-01T03:25:46;6.07;;;3.17;;
37781;SDS011;23621;50.878;4.584;2023-02-01T03:28:15;11.00;;;3.65;;
37781;SDS011;23621;50.878;4.584;2023-02-01T03:30:47;11.27;;;3.50;;
37781;SDS011;23621;50.878;4.584;2023-02-01T03:33:16;11.18;;;3.70;;
37781;SDS011;23621;50.878;4.584;2023-02-01T03:44:15;9.65;;;3.10;;
37781;SDS011;23621;50.878;4.584;2023-02-01T03:47:10;15.68;;;4.70;;
37781;SDS011;23621;50.878;4.584;2023-02-01T03:52:59;10.35;;;4.53;;
37781;SDS011;23621;50.878;4.584;2023-02-01T03:55:33;12.13;;;3.75;;
37781;SDS011;23621;50.878;4.584;2023-02-01T04:00:50;11.40;;;3.22;;
37781;SDS011;23621;50.878;4.584;2023-02-01T04:03:21;9.95;;;3.35;;
37781;SDS011;23621;50.878;4.584;2023-02-01T04:05:49;10.95;;;3.10;;
37781;SDS011;23621;50.878;4.584;2023-02-01T04:08:18;9.32;;;3.60;;
37781;SDS011;23621;50.878;4.584;2023-02-01T04:10:49;12.65;;;3.38;;
37781;SDS011;23621;50.878;4.584;2023-02-01T04:13:16;9.50;;;3.50;;
37781;SDS011;23621;50.878;4.584;2023-02-01T04:15:43;9.60;;;3.60;;
37781;SDS011;23621;50.878;4.584;2023-02-01T04:18:11;9.48;;;3.58;;
37781;SDS011;23621;50.878;4.584;2023-02-01T04:20:38;12.93;;;3.40;;
37781;SDS011;23621;50.878;4.584;2023-02-01T04:23:05;13.02;;;3.95;;
37781;SDS011;23621;50.878;4.584;2023-02-01T04:25:33;10.75;;;3.50;;
37781;SDS011;23621;50.878;4.584;2023-02-01T04:28:00;9.15;;;4.00;;
37781;SDS011;23621;50.878;4.584;2023-02-01T04:30:27;15.20;;;4.13;;
37781;SDS011;23621;50.878;4.584;2023-02-01T04:32:57;9.13;;;3.70;;
37781;SDS011;23621;50.878;4.584;2023-02-01T04:35:24;10.77;;;3.10;;
37781;SDS011;23621;50.878;4.584;2023-02-01T04:37:50;15.88;;;4.32;;
37781;SDS011;23621;50.878;4.584;2023-02-01T04:40:17;9.13;;;3.35;;
37781;SDS011;23621;50.878;4.584;2023-02-01T04:42:44;12.25;;;3.60;;
37781;SDS011;23621;50.878;4.584;2023-02-01T04:45:11;10.27;;;3.80;;
37781;SDS011;23621;50.878;4.584;2023-02-01T04:47:39;9.00;;;3.03;;
37781;SDS011;23621;50.878;4.584;2023-02-01T04:50:06;11.48;;;3.65;;
37781;SDS011;23621;50.878;4.584;2023-02-01T04:52:36;8.80;;;3.42;;
37781;SDS011;23621;50.878;4.584;2023-02-01T04:55:03;11.98;;;3.38;;
37781;SDS011;23621;50.878;4.584;2023-02-01T04:57:30;9.60;;;4.30;;
37781;SDS011;23621;50.878;4.584;2023-02-01T05:00:00;10.82;;;3.78;;
37781;SDS011;23621;50.878;4.584;2023-02-01T05:02:27;10.88;;;3.67;;
37781;SDS011;23621;50.878;4.584;2023-02-01T05:04:54;9.52;;;3.90;;
37781;SDS011;23621;50.878;4.584;2023-02-01T05:07:22;11.68;;;4.47;;
37781;SDS011;23621;50.878;4.584;2023-02-01T05:09:49;13.60;;;3.47;;
37781;SDS011;23621;50.878;4.584;2023-02-01T05:12:16;11.45;;;3.60;;
37781;SDS011;23621;50.878;4.584;2023-02-01T05:15:01;9.60;;;2.90;;
37781;SDS011;23621;50.878;4.584;2023-02-01T05:17:29;13.55;;;4.53;;
37781;SDS011;23621;50.878;4.584;2023-02-01T05:19:55;9.70;;;3.40;;
37781;SDS011;23621;50.878;4.584;2023-02-01T05:22:23;12.20;;;3.72;;
37781;SDS011;23621;50.878;4.584;2023-02-01T05:24:50;13.75;;;3.80;;
37781;SDS011;23621;50.878;4.584;2023-02-01T05:27:16;8.32;;;3.90;;
37781;SDS011;23621;50.878;4.584;2023-02-01T05:29:43;14.18;;;3.92;;
37781;SDS011;23621;50.878;4.584;2023-02-01T05:32:10;14.85;;;4.43;;
37781;SDS011;23621;50.878;4.584;2023-02-01T05:34:47;7.85;;;3.05;;
37781;SDS011;23621;50.878;4.584;2023-02-01T05:37:14;9.80;;;3.55;;
37781;SDS011;23621;50.878;4.584;2023-02-01T05:39:41;8.00;;;3.05;;
37781;SDS011;23621;50.878;4.584;2023-02-01T05:42:08;13.63;;;3.90;;
37781;SDS011;23621;50.878;4.584;2023-02-01T05:44:35;14.90;;;4.07;;
37781;SDS011;23621;50.878;4.584;2023-02-01T05:47:02;14.25;;;4.13;;
37781;SDS011;23621;50.878;4.584;2023-02-01T05:49:29;11.48;;;2.95;;
37781;SDS011;23621;50.878;4.584;2023-02-01T05:51:56;9.95;;;3.20;;
37781;SDS011;23621;50.878;4.584;2023-02-01T05:54:25;12.02;;;3.08;;
37781;SDS011;23621;50.878;4.584;2023-02-01T05:56:52;13.82;;;3.58;;
37781;SDS011;23621;50.878;4.584;2023-02-01T05:59:19;9.80;;;3.65;;
37781;SDS011;23621;50.878;4.584;2023-02-01T06:01:46;9.95;;;3.33;;
37781;SDS011;23621;50.878;4.584;2023-02-01T06:04:13;10.52;;;3.70;;
37781;SDS011;23621;50.878;4.584;2023-02-01T06:06:40;11.57;;;3.72;;
37781;SDS011;23621;50.878;4.584;2023-02-01T06:09:07;12.50;;;3.30;;
37781;SDS011;23621;50.878;4.584;2023-02-01T06:11:34;13.82;;;4.25;;
37781;SDS011;23621;50.878;4.584;2023-02-01T06:14:01;8.27;;;2.70;;
37781;SDS011;23621;50.878;4.584;2023-02-01T06:16:28;12.07;;;3.25;;
37781;SDS011;23621;50.878;4.584;2023-02-01T06:18:55;10.25;;;3.15;;
37781;SDS011;23621;50.878;4.584;2023-02-01T06:21:22;9.68;;;3.10;;
37781;SDS011;23621;50.878;4.584;2023-02-01T06:23:52;13.02;;;2.88;;
37781;SDS011;23621;50.878;4.584;2023-02-01T06:26:19;13.07;;;3.38;;
37781;SDS011;23621;50.878;4.584;2023-02-01T06:28:47;10.43;;;3.78;;
37781;SDS011;23621;50.878;4.584;2023-02-01T06:31:14;12.23;;;3.42;;
37781;SDS011;23621;50.878;4.584;2023-02-01T06:33:41;10.02;;;3.20;;
37781;SDS011;23621;50.878;4.584;2023-02-01T06:36:09;11.23;;;3.90;;
37781;SDS011;23621;50.878;4.584;2023-02-01T06:38:38;12.30;;;3.65;;
37781;SDS011;23621;50.878;4.584;2023-02-01T06:41:05;14.40;;;3.80;;
37781;SDS011;23621;50.878;4.584;2023-02-01T06:43:32;10.75;;;3.00;;
37781;SDS011;23621;50.878;4.584;2023-02-01T06:46:00;16.52;;;3.72;;
37781;SDS011;23621;50.878;4.584;2023-02-01T06:48:29;12.05;;;3.30;;
37781;SDS011;23621;50.878;4.584;2023-02-01T06:50:56;14.20;;;3.80;;
37781;SDS011;23621;50.878;4.584;2023-02-01T06:53:23;9.48;;;3.13;;
37781;SDS011;23621;50.878;4.584;2023-02-01T06:55:54;10.45;;;3.22;;
37781;SDS011;23621;50.878;4.584;2023-02-01T06:58:22;14.73;;;3.90;;
37781;SDS011;23621;50.878;4.584;2023-02-01T07:00:50;9.68;;;3.45;;
37781;SDS011;23621;50.878;4.584;2023-02-01T07:03:17;11.98;;;3.50;;
37781;SDS011;23621;50.878;4.584;2023-02-01T07:05:44;10.75;;;2.92;;
37781;SDS011;23621;50.878;4.584;2023-02-01T07:08:10;10.85;;;3.85;;
37781;SDS011;23621;50.878;4.584;2023-02-01T07:10:37;12.45;;;3.35;;
37781;SDS011;23621;50.878;4.584;2023-02-01T07:13:04;10.23;;;3.75;;
37781;SDS011;23621;50.878;4.584;2023-02-01T07:15:31;13.05;;;3.55;;
37781;SDS011;23621;50.878;4.584;2023-02-01T07:17:58;10.35;;;3.85;;
37781;SDS011;23621;50.878;4.584;2023-02-01T07:20:25;6.63;;;3.05;;
37781;SDS011;23621;50.878;4.584;2023-02-01T07:22:56;8.15;;;3.47;;
37781;SDS011;23621;50.878;4.584;2023-02-01T07:25:23;12.68;;;3.30;;
37781;SDS011;23621;50.878;4.584;2023-02-01T07:27:50;12.18;;;3.78;;
37781;SDS011;23621;50.878;4.584;2023-02-01T07:30:17;10.18;;;3.78;;
37781;SDS011;23621;50.878;4.584;2023-02-01T07:32:44;13.25;;;3.22;;
37781;SDS011;23621;50.878;4.584;2023-02-01T07:35:11;10.88;;;3.17;;
37781;SDS011;23621;50.878;4.584;2023-02-01T07:37:40;10.25;;;3.80;;
37781;SDS011;23621;50.878;4.584;2023-02-01T07:40:07;10.68;;;3.75;;
37781;SDS011;23621;50.878;4.584;2023-02-01T07:42:35;9.98;;;3.45;;
37781;SDS011;23621;50.878;4.584;2023-02-01T07:45:02;9.45;;;3.80;;
37781;SDS011;23621;50.878;4.584;2023-02-01T07:47:46;11.60;;;4.05;;
37781;SDS011;23621;50.878;4.584;2023-02-01T07:50:13;9.65;;;3.70;;
37781;SDS011;23621;50.878;4.584;2023-02-01T07:52:40;10.38;;;3.40;;
37781;SDS011;23621;50.878;4.584;2023-02-01T07:55:08;10.68;;;3.25;;
37781;SDS011;23621;50.878;4.584;2023-02-01T07:57:35;11.20;;;3.72;;
37781;SDS011;23621;50.878;4.584;2023-02-01T08:00:02;10.93;;;3.95;;
37781;SDS011;23621;50.878;4.584;2023-02-01T08:02:48;12.70;;;3.97;;
37781;SDS011;23621;50.878;4.584;2023-02-01T08:05:15;9.93;;;3.63;;
37781;SDS011;23621;50.878;4.584;2023-02-01T08:07:42;10.05;;;4.00;;
37781;SDS011;23621;50.878;4.584;2023-02-01T08:10:09;11.88;;;4.30;;
37781;SDS011;23621;50.878;4.584;2023-02-01T08:12:37;11.68;;;3.38;;
37781;SDS011;23621;50.878;4.584;2023-02-01T08:15:04;8.15;;;3.40;;
37781;SDS011;23621;50.878;4.584;2023-02-01T08:17:32;16.60;;;3.95;;
37781;SDS011;23621;50.878;4.584;2023-02-01T08:19:59;11.05;;;4.20;;
37781;SDS011;23621;50.878;4.584;2023-02-01T08:22:30;10.80;;;3.72;;
37781;SDS011;23621;50.878;4.584;2023-02-01T08:24:58;11.57;;;3.42;;
37781;SDS011;23621;50.878;4.584;2023-02-01T08:27:27;17.17;;;3.90;;
37781;SDS011;23621;50.878;4.584;2023-02-01T08:29:54;10.35;;;3.65;;
37781;SDS011;23621;50.878;4.584;2023-02-01T08:32:21;12.82;;;3.90;;
37781;SDS011;23621;50.878;4.584;2023-02-01T08:34:48;14.27;;;4.68;;
37781;SDS011;23621;50.878;4.584;2023-02-01T08:37:15;12.50;;;4.05;;
37781;SDS011;23621;50.878;4.584;2023-02-01T08:39:42;9.63;;;3.55;;
37781;SDS011;23621;50.878;4.584;2023-02-01T08:42:13;6.95;;;3.20;;
37781;SDS011;23621;50.878;4.584;2023-02-01T08:44:58;17.67;;;3.97;;
37781;SDS011;23621;50.878;4.584;2023-02-01T08:47:25;8.63;;;3.97;;
37781;SDS011;23621;50.878;4.584;2023-02-01T08:49:52;10.40;;;3.63;;
37781;SDS011;23621;50.878;4.584;2023-02-01T08:52:20;17.00;;;4.45;;
37781;SDS011;23621;50.878;4.584;2023-02-01T08:54:47;12.52;;;4.03;;
37781;SDS011;23621;50.878;4.584;2023-02-01T08:57:14;15.20;;;3.67;;
37781;SDS011;23621;50.878;4.584;2023-02-01T08:59:41;12.93;;;3.70;;
37781;SDS011;23621;50.878;4.584;2023-02-01T09:02:14;14.52;;;4.13;;
37781;SDS011;23621;50.878;4.584;2023-02-01T09:04:42;8.57;;;3.67;;
37781;SDS011;23621;50.878;4.584;2023-02-01T09:07:09;15.00;;;4.20;;
37781;SDS011;23621;50.878;4.584;2023-02-01T09:09:37;6.72;;;3.47;;
37781;SDS011;23621;50.878;4.584;2023-02-01T09:12:04;10.30;;;3.83;;
37781;SDS011;23621;50.878;4.584;2023-02-01T09:14:31;14.20;;;4.03;;
37781;SDS011;23621;50.878;4.584;2023-02-01T09:16:59;11.77;;;3.92;;
37781;SDS011;23621;50.878;4.584;2023-02-01T09:19:32;11.35;;;3.97;;
37781;SDS011;23621;50.878;4.584;2023-02-01T09:21:59;13.90;;;4.18;;
37781;SDS011;23621;50.878;4.584;2023-02-01T09:24:26;14.32;;;4.20;;
37781;SDS011;23621;50.878;4.584;2023-02-01T09:26:53;12.82;;;3.80;;
37781;SDS011;23621;50.878;4.584;2023-02-01T09:29:20;13.32;;;4.70;;
37781;SDS011;23621;50.878;4.584;2023-02-01T09:31:47;11.13;;;3.90;;
37781;SDS011;23621;50.878;4.584;2023-02-01T09:34:28;10.10;;;3.65;;
37781;SDS011;23621;50.878;4.584;2023-02-01T09:36:55;12.50;;;3.45;;
37781;SDS011;23621;50.878;4.584;2023-02-01T09:39:22;11.43;;;3.50;;
37781;SDS011;23621;50.878;4.584;2023-02-01T09:46:46;12.27;;;3.63;;
37781;SDS011;23621;50.878;4.584;2023-02-01T09:49:15;12.38;;;3.58;;
37781;SDS011;23621;50.878;4.584;2023-02-01T09:51:48;13.60;;;3.55;;
37781;SDS011;23621;50.878;4.584;2023-02-01T09:59:57;13.93;;;3.50;;
37781;SDS011;23621;50.878;4.584;2023-02-01T10:02:39;9.50;;;3.70;;
37781;SDS011;23621;50.878;4.584;2023-02-01T10:05:11;11.20;;;3.88;;
37781;SDS011;23621;50.878;4.584;2023-02-01T10:10:13;12.80;;;3.80;;
37781;SDS011;23621;50.878;4.584;2023-02-01T10:26:37;13.20;;;4.38;;
37781;SDS011;23621;50.878;4.584;2023-02-01T10:29:18;7.88;;;3.30;;
37781;SDS011;23621;50.878;4.584;2023-02-01T10:31:48;13.13;;;3.17;;
37781;SDS011;23621;50.878;4.584;2023-02-01T10:37:30;13.52;;;3.22;;
37781;SDS011;23621;50.878;4.584;2023-02-01T10:39:52;8.30;;;2.72;;
37781;SDS011;23621;50.878;4.584;2023-02-01T10:42:23;7.88;;;3.00;;
37781;SDS011;23621;50.878;4.584;2023-02-01T10:44:52;10.25;;;3.25;;
37781;SDS011;23621;50.878;4.584;2023-02-01T10:47:21;8.55;;;2.97;;
37781;SDS011;23621;50.878;4.584;2023-02-01T10:55:26;14.60;;;3.65;;
37781;SDS011;23621;50.878;4.584;2023-02-01T10:58:21;9.68;;;3.28;;
37781;SDS011;23621;50.878;4.584;2023-02-01T11:00:53;10.52;;;4.22;;
37781;SDS011;23621;50.878;4.584;2023-02-01T11:06:37;12.90;;;3.40;;
37781;SDS011;23621;50.878;4.584;2023-02-01T11:14:19;10.35;;;3.10;;
37781;SDS011;23621;50.878;4.584;2023-02-01T11:17:00;5.43;;;2.63;;
37781;SDS011;23621;50.878;4.584;2023-02-01T11:19:59;6.70;;;2.88;;
37781;SDS011;23621;50.878;4.584;2023-02-01T11:22:27;9.82;;;3.35;;
37781;SDS011;23621;50.878;4.584;2023-02-01T11:24:56;8.48;;;3.08;;
37781;SDS011;23621;50.878;4.584;2023-02-01T11:27:26;4.35;;;2.88;;
37781;SDS011;23621;50.878;4.584;2023-02-01T11:29:58;6.15;;;3.17;;
37781;SDS011;23621;50.878;4.584;2023-02-01T11:32:28;9.38;;;3.08;;
37781;SDS011;23621;50.878;4.584;2023-02-01T11:35:03;14.73;;;3.60;;
37781;SDS011;23621;50.878;4.584;2023-02-01T11:37:40;8.27;;;2.28;;
37781;SDS011;23621;50.878;4.584;2023-02-01T11:40:22;8.80;;;2.67;;
37781;SDS011;23621;50.878;4.584;2023-02-01T11:42:55;8.25;;;2.75;;
37781;SDS011;23621;50.878;4.584;2023-02-01T11:48:00;8.23;;;2.55;;
37781;SDS011;23621;50.878;4.584;2023-02-01T11:50:44;8.32;;;3.20;;
37781;SDS011;23621;50.878;4.584;2023-02-01T11:53:25;10.57;;;3.25;;
37781;SDS011;23621;50.878;4.584;2023-02-01T12:10:17;6.03;;;2.72;;
37781;SDS011;23621;50.878;4.584;2023-02-01T12:12:53;4.68;;;2.00;;
37781;SDS011;23621;50.878;4.584;2023-02-01T12:26:27;7.22;;;2.38;;
37781;SDS011;23621;50.878;4.584;2023-02-01T12:35:12;6.60;;;2.00;;
37781;SDS011;23621;50.878;4.584;2023-02-01T12:49:44;7.38;;;3.33;;
37781;SDS011;23621;50.878;4.584;2023-02-01T12:52:17;4.75;;;2.22;;
37781;SDS011;23621;50.878;4.584;2023-02-01T12:54:59;4.30;;;2.30;;
37781;SDS011;23621;50.878;4.584;2023-02-01T12:57:49;6.53;;;2.15;;
37781;SDS011;23621;50.878;4.584;2023-02-01T13:00:36;3.20;;;1.77;;
37781;SDS011;23621;50.878;4.584;2023-02-01T13:03:17;4.97;;;1.80;;
37781;SDS011;23621;50.878;4.584;2023-02-01T13:05:53;4.00;;;1.75;;
37781;SDS011;23621;50.878;4.584;2023-02-01T13:08:31;5.25;;;1.92;;
37781;SDS011;23621;50.878;4.584;2023-02-01T13:16:34;5.78;;;1.90;;
37781;SDS011;23621;50.878;4.584;2023-02-01T13:19:20;4.43;;;2.15;;
37781;SDS011;23621;50.878;4.584;2023-02-01T13:22:13;3.58;;;1.90;;
37781;SDS011;23621;50.878;4.584;2023-02-01T13:25:03;5.97;;;2.40;;
37781;SDS011;23621;50.878;4.584;2023-02-01T13:27:55;6.63;;;2.00;;
37781;SDS011;23621;50.878;4.584;2023-02-01T13:30:37;6.03;;;2.10;;
37781;SDS011;23621;50.878;4.584;2023-02-01T13:36:23;5.10;;;2.30;;
37781;SDS011;23621;50.878;4.584;2023-02-01T13:41:56;3.67;;;2.10;;
37781;SDS011;23621;50.878;4.584;2023-02-01T13:44:31;6.55;;;2.13;;
37781;SDS011;23621;50.878;4.584;2023-02-01T13:47:33;5.88;;;2.20;;
37781;SDS011;23621;50.878;4.584;2023-02-01T13:53:13;5.18;;;2.30;;
37781;SDS011;23621;50.878;4.584;2023-02-01T13:55:46;6.05;;;1.83;;
37781;SDS011;23621;50.878;4.584;2023-02-01T14:01:42;6.78;;;2.03;;
37781;SDS011;23621;50.878;4.584;2023-02-01T14:16:43;6.00;;;2.45;;
37781;SDS011;23621;50.878;4.584;2023-02-01T14:19:26;7.00;;;2.75;;
37781;SDS011;23621;50.878;4.584;2023-02-01T14:21:55;6.50;;;2.25;;
37781;SDS011;23621;50.878;4.584;2023-02-01T14:24:27;6.30;;;2.03;;
37781;SDS011;23621;50.878;4.584;2023-02-01T14:27:14;4.95;;;2.30;;
37781;SDS011;23621;50.878;4.584;2023-02-01T14:29:53;7.38;;;2.88;;
37781;SDS011;23621;50.878;4.584;2023-02-01T14:32:34;5.70;;;2.17;;
37781;SDS011;23621;50.878;4.584;2023-02-01T14:35:12;8.52;;;2.72;;
37781;SDS011;23621;50.878;4.584;2023-02-01T14:37:54;6.45;;;2.30;;
37781;SDS011;23621;50.878;4.584;2023-02-01T14:40:28;7.20;;;2.28;;
37781;SDS011;23621;50.878;4.584;2023-02-01T14:42:56;11.13;;;2.92;;
37781;SDS011;23621;50.878;4.584;2023-02-01T14:58:18;8.20;;;2.85;;
37781;SDS011;23621;50.878;4.584;2023-02-01T15:01:06;6.90;;;2.20;;
37781;SDS011;23621;50.878;4.584;2023-02-01T15:03:46;4.10;;;1.88;;
37781;SDS011;23621;50.878;4.584;2023-02-01T15:06:23;7.72;;;2.53;;
37781;SDS011;23621;50.878;4.584;2023-02-01T15:08:54;8.02;;;2.92;;
37781;SDS011;23621;50.878;4.584;2023-02-01T15:11:24;5.55;;;2.38;;
37781;SDS011;23621;50.878;4.584;2023-02-01T15:13:52;7.40;;;2.28;;
37781;SDS011;23621;50.878;4.584;2023-02-01T15:16:21;8.18;;;1.92;;
37781;SDS011;23621;50.878;4.584;2023-02-01T15:18:50;8.57;;;2.65;;
37781;SDS011;23621;50.878;4.584;2023-02-01T15:21:46;7.72;;;3.10;;
37781;SDS011;23621;50.878;4.584;2023-02-01T15:24:25;9.75;;;2.65;;
37781;SDS011;23621;50.878;4.584;2023-02-01T15:26:54;6.15;;;2.03;;
37781;SDS011;23621;50.878;4.584;2023-02-01T15:29:23;8.32;;;2.80;;
37781;SDS011;23621;50.878;4.584;2023-02-01T15:31:58;4.30;;;2.10;;
37781;SDS011;23621;50.878;4.584;2023-02-01T15:34:44;8.65;;;2.40;;
37781;SDS011;23621;50.878;4.584;2023-02-01T15:37:16;7.22;;;2.65;;
37781;SDS011;23621;50.878;4.584;2023-02-01T15:42:52;10.85;;;2.80;;
37781;SDS011;23621;50.878;4.584;2023-02-01T15:45:26;5.70;;;2.72;;
37781;SDS011;23621;50.878;4.584;2023-02-01T15:47:57;6.07;;;2.45;;
37781;SDS011;23621;50.878;4.584;2023-02-01T15:50:25;8.75;;;2.83;;
37781;SDS011;23621;50.878;4.584;2023-02-01T15:52:55;9.80;;;2.25;;
37781;SDS011;23621;50.878;4.584;2023-02-01T15:55:34;10.20;;;2.70;;
37781;SDS011;23621;50.878;4.584;2023-02-01T15:58:09;9.23;;;3.55;;
37781;SDS011;23621;50.878;4.584;2023-02-01T16:00:49;12.45;;;3.25;;
37781;SDS011;23621;50.878;4.584;2023-02-01T16:06:27;8.68;;;3.22;;
37781;SDS011;23621;50.878;4.584;2023-02-01T16:11:30;9.55;;;2.63;;
37781;SDS011;23621;50.878;4.584;2023-02-01T16:13:59;9.52;;;3.30;;
37781;SDS011;23621;50.878;4.584;2023-02-01T16:16:27;7.30;;;3.05;;
37781;SDS011;23621;50.878;4.584;2023-02-01T16:18:54;8.82;;;2.83;;
37781;SDS011;23621;50.878;4.584;2023-02-01T16:21:21;7.43;;;2.65;;
37781;SDS011;23621;50.878;4.584;2023-02-01T16:23:49;7.15;;;2.72;;
37781;SDS011;23621;50.878;4.584;2023-02-01T16:26:18;12.38;;;3.33;;
37781;SDS011;23621;50.878;4.584;2023-02-01T16:28:46;7.45;;;3.38;;
37781;SDS011;23621;50.878;4.584;2023-02-01T16:31:14;11.32;;;3.22;;
37781;SDS011;23621;50.878;4.584;2023-02-01T16:33:47;6.70;;;2.63;;
37781;SDS011;23621;50.878;4.584;2023-02-01T16:36:16;7.53;;;3.13;;
37781;SDS011;23621;50.878;4.584;2023-02-01T16:38:49;8.63;;;3.20;;
37781;SDS011;23621;50.878;4.584;2023-02-01T16:41:20;10.15;;;3.17;;
37781;SDS011;23621;50.878;4.584;2023-02-01T16:43:49;11.13;;;3.40;;
37781;SDS011;23621;50.878;4.584;2023-02-01T16:46:19;7.82;;;2.88;;
37781;SDS011;23621;50.878;4.584;2023-02-01T16:48:57;11.10;;;3.67;;
37781;SDS011;23621;50.878;4.584;2023-02-01T16:51:26;5.68;;;2.60;;
37781;SDS011;23621;50.878;4.584;2023-02-01T16:54:01;11.00;;;2.90;;
37781;SDS011;23621;50.878;4.584;2023-02-01T16:56:29;11.43;;;3.20;;
37781;SDS011;23621;50.878;4.584;2023-02-01T16:58:59;9.30;;;3.05;;
37781;SDS011;23621;50.878;4.584;2023-02-01T17:01:26;12.60;;;3.95;;
37781;SDS011;23621;50.878;4.584;2023-02-01T17:03:53;9.68;;;3.35;;
37781;SDS011;23621;50.878;4.584;2023-02-01T17:06:21;9.43;;;3.65;;
37781;SDS011;23621;50.878;4.584;2023-02-01T17:08:51;10.43;;;4.07;;
37781;SDS011;23621;50.878;4.584;2023-02-01T17:11:21;8.40;;;3.67;;
37781;SDS011;23621;50.878;4.584;2023-02-01T17:13:48;13.63;;;5.40;;
37781;SDS011;23621;50.878;4.584;2023-02-01T17:18:55;13.32;;;3.88;;
37781;SDS011;23621;50.878;4.584;2023-02-01T17:21:30;9.95;;;3.67;;
37781;SDS011;23621;50.878;4.584;2023-02-01T17:24:06;9.90;;;3.25;;
37781;SDS011;23621;50.878;4.584;2023-02-01T17:26:33;8.55;;;3.15;;
37781;SDS011;23621;50.878;4.584;2023-02-01T17:29:09;9.15;;;4.35;;
37781;SDS011;23621;50.878;4.584;2023-02-01T17:31:42;7.28;;;4.03;;
37781;SDS011;23621;50.878;4.584;2023-02-01T17:34:12;8.50;;;3.38;;
37781;SDS011;23621;50.878;4.584;2023-02-01T17:36:46;9.82;;;3.42;;
37781;SDS011;23621;50.878;4.584;2023-02-01T17:39:14;6.35;;;3.20;;
37781;SDS011;23621;50.878;4.584;2023-02-01T17:42:04;12.90;;;3.47;;
37781;SDS011;23621;50.878;4.584;2023-02-01T17:44:34;11.43;;;4.10;;
37781;SDS011;23621;50.878;4.584;2023-02-01T17:47:04;7.53;;;3.03;;
37781;SDS011;23621;50.878;4.584;2023-02-01T17:49:31;9.88;;;3.08;;
37781;SDS011;23621;50.878;4.584;2023-02-01T17:52:00;9.95;;;3.15;;
37781;SDS011;23621;50.878;4.584;2023-02-01T17:54:30;8.70;;;2.83;;
37781;SDS011;23621;50.878;4.584;2023-02-01T17:56:57;6.40;;;3.22;;
37781;SDS011;23621;50.878;4.584;2023-02-01T17:59:28;11.63;;;4.07;;
37781;SDS011;23621;50.878;4.584;2023-02-01T18:01:55;8.70;;;3.20;;
37781;SDS011;23621;50.878;4.584;2023-02-01T18:04:26;8.82;;;3.08;;
37781;SDS011;23621;50.878;4.584;2023-02-01T18:06:53;10.13;;;3.30;;
37781;SDS011;23621;50.878;4.584;2023-02-01T18:09:20;11.55;;;3.58;;
37781;SDS011;23621;50.878;4.584;2023-02-01T18:11:46;13.15;;;3.78;;
37781;SDS011;23621;50.878;4.584;2023-02-01T18:14:15;9.95;;;3.67;;
37781;SDS011;23621;50.878;4.584;2023-02-01T18:16:42;11.75;;;3.03;;
37781;SDS011;23621;50.878;4.584;2023-02-01T18:19:09;7.93;;;3.33;;
37781;SDS011;23621;50.878;4.584;2023-02-01T18:21:37;9.85;;;3.30;;